Time;durP1;ratioP1;P1;durP2;ratioP2;P2;SDS_P1;SDS_P2;PMS_P1;PMS_P2;Temp;Humidity;BMP_temperature;BMP_pressure;BME280_temperature;BME280_humidity;BME280_pressure;Samples;Min_cycle;Max_cycle;Signal;HPM_P1;HPM_P2
2022/08/01 00:02:18;;;;;;;50.10;5.68;;;;;;;46.45;17.43;100982.03;5073514;28;20075;-60
2022/08/01 00:04:45;;;;;;;51.05;5.55;;;;;;;44.23;20.77;100987.72;5073261;28;20016;-61
2022/08/01 00:07:12;;;;;;;54.80;6.22;;;;;;;42.83;22.67;100978.91;5072913;28;20028;-62
2022/08/01 00:09:38;;;;;;;41.60;6.28;;;;;;;43.39;22.10;100980.25;5072789;28;20050;-61
2022/08/01 00:12:05;;;;;;;39.00;5.68;;;;;;;41.33;24.75;100967.72;5073000;28;20021;-61
2022/08/01 00:14:32;;;;;;;32.28;4.72;;;;;;;40.98;25.21;100952.84;5072241;28;20028;-61
2022/08/01 00:16:59;;;;;;;46.33;5.15;;;;;;;41.29;25.27;100969.09;5071945;28;20651;-59
2022/08/01 00:19:26;;;;;;;23.13;3.83;;;;;;;41.14;24.91;100979.53;5071945;28;20042;-61
2022/08/01 00:21:52;;;;;;;28.58;3.85;;;;;;;41.57;24.21;100965.03;5071585;28;20021;-61
2022/08/01 00:24:19;;;;;;;19.77;3.72;;;;;;;41.52;24.34;100962.81;5071793;28;20023;-62
2022/08/01 00:26:46;;;;;;;24.25;3.25;;;;;;;40.30;26.02;100963.22;5072225;28;20105;-60
2022/08/01 00:29:12;;;;;;;19.00;2.92;;;;;;;39.92;25.98;100971.13;5070587;28;20020;-61
2022/08/01 00:31:41;;;;;;;18.60;3.13;;;;;;;39.96;25.74;100960.44;5070788;28;20506;-62
2022/08/01 00:34:07;;;;;;;16.67;2.90;;;;;;;40.39;24.74;100959.66;5070698;28;20028;-63
2022/08/01 00:36:34;;;;;;;13.07;2.58;;;;;;;40.20;24.66;100950.16;5070148;28;20056;-61
2022/08/01 00:39:01;;;;;;;11.45;2.63;;;;;;;40.95;23.32;100956.66;5071433;28;20380;-62
2022/08/01 00:41:28;;;;;;;12.15;2.47;;;;;;;40.56;22.43;100945.97;5071892;28;20431;-60
2022/08/01 00:43:54;;;;;;;9.57;2.03;;;;;;;41.05;21.03;100951.75;5073381;28;20095;-60
2022/08/01 00:46:21;;;;;;;13.82;2.30;;;;;;;40.73;19.20;100955.88;5071481;28;20032;-61
2022/08/01 00:48:48;;;;;;;18.58;2.38;;;;;;;40.45;17.69;100940.72;5073763;28;20460;-63
2022/08/01 00:51:16;;;;;;;13.50;2.00;;;;;;;40.52;17.91;100951.03;5068609;28;20028;-60
2022/08/01 00:53:42;;;;;;;8.95;1.73;;;;;;;41.00;18.54;100944.63;5069298;28;20028;-62
2022/08/01 00:56:10;;;;;;;9.88;2.20;;;;;;;41.16;18.35;100943.56;5070455;28;20032;-62
2022/08/01 00:58:37;;;;;;;8.13;1.98;;;;;;;41.18;18.27;100945.94;5069670;28;20387;-61
2022/08/01 01:01:04;;;;;;;8.63;2.10;;;;;;;40.30;19.74;100934.72;5070018;28;20067;-62
2022/08/01 01:03:31;;;;;;;7.57;1.45;;;;;;;39.72;20.60;100934.44;5070492;28;20032;-59
2022/08/01 01:06:07;;;;;;;10.93;2.17;;;;;;;39.13;21.22;100936.81;5070317;28;20539;-62
2022/08/01 01:08:46;;;;;;;13.05;2.35;;;;;;;39.47;20.90;100929.59;5068655;28;20041;-61
2022/08/01 01:11:28;;;;;;;10.90;2.10;;;;;;;39.28;21.90;100940.78;5068740;28;20044;-60
2022/08/01 01:14:09;;;;;;;8.35;1.90;;;;;;;39.61;22.17;100936.88;5071018;28;20066;-61
2022/08/01 01:16:40;;;;;;;11.45;1.85;;;;;;;38.65;22.46;100938.78;5069807;28;20066;-62
2022/08/01 01:19:13;;;;;;;10.45;2.00;;;;;;;38.99;20.66;100942.97;5068975;28;20032;-60
2022/08/01 01:22:29;;;;;;;33.03;2.75;;;;;;;39.09;20.08;100947.53;5071057;28;20063;-60
2022/08/01 01:25:02;;;;;;;13.88;2.08;;;;;;;39.06;21.26;100959.78;5015262;28;20046;-61
2022/08/01 01:28:02;;;;;;;18.13;2.67;;;;;;;39.28;21.15;100957.84;5068645;28;20151;-60
2022/08/01 01:30:32;;;;;;;16.63;2.00;;;;;;;39.66;20.41;100959.81;5069572;28;20047;-63
2022/08/01 01:33:03;;;;;;;11.80;1.88;;;;;;;39.20;19.94;100967.09;5070657;28;20040;-61
2022/08/01 01:35:34;;;;;;;13.52;1.98;;;;;;;39.09;20.57;100961.75;5069293;28;20040;-62
2022/08/01 01:38:07;;;;;;;13.05;1.90;;;;;;;38.68;21.46;100969.09;5058696;28;20541;-61
2022/08/01 01:40:36;;;;;;;16.20;2.33;;;;;;;38.61;22.17;100972.16;5052776;28;20041;-61
2022/08/01 01:43:02;;;;;;;15.15;2.13;;;;;;;38.43;21.80;100977.56;5054229;28;20037;-62
2022/08/01 01:45:31;;;;;;;13.18;1.90;;;;;;;38.20;21.91;100978.63;5057378;28;20033;-61
2022/08/01 01:47:59;;;;;;;11.77;1.88;;;;;;;38.15;22.25;100979.16;5055776;28;20398;-61
2022/08/01 01:50:27;;;;;;;13.38;2.05;;;;;;;37.97;23.45;100981.69;5056723;28;20057;-61
2022/08/01 01:52:56;;;;;;;10.02;2.05;;;;;;;38.01;23.63;100986.03;5055207;28;20541;-61
2022/08/01 01:55:25;;;;;;;8.60;2.00;;;;;;;38.00;23.59;100984.44;5058655;28;20025;-62
2022/08/01 01:57:53;;;;;;;12.25;1.85;;;;;;;37.66;22.22;100986.97;5057447;28;20052;-61
2022/08/01 02:00:21;;;;;;;13.85;1.98;;;;;;;37.27;22.52;100997.25;5060191;28;20079;-60
2022/08/01 02:02:49;;;;;;;7.28;1.58;;;;;;;37.09;23.14;100991.19;5057106;28;20036;-62
2022/08/01 02:05:16;;;;;;;11.02;1.73;;;;;;;36.92;24.70;100996.03;5058613;28;20067;-62
2022/08/01 02:07:44;;;;;;;11.30;1.80;;;;;;;37.03;24.15;100998.63;5057298;28;20646;-62
2022/08/01 02:10:13;;;;;;;9.25;1.90;;;;;;;37.08;24.51;100998.09;5060226;28;20043;-60
2022/08/01 02:12:45;;;;;;;9.98;1.85;;;;;;;36.92;25.23;101013.84;5059115;28;20037;-62
2022/08/01 02:15:14;;;;;;;9.13;1.85;;;;;;;36.71;25.58;101002.94;5067966;28;20814;-59
2022/08/01 02:17:47;;;;;;;13.35;1.90;;;;;;;36.51;25.50;101007.84;5069450;28;20542;-59
2022/08/01 02:20:14;;;;;;;10.90;2.00;;;;;;;36.34;26.25;101009.00;5070680;28;20033;-59
2022/08/01 02:23:02;;;;;;;11.60;2.40;;;;;;;36.49;27.16;101015.97;5072855;28;20029;-60
2022/08/01 02:25:36;;;;;;;15.43;2.22;;;;;;;36.15;30.09;101024.72;5073434;28;20039;-61
2022/08/01 02:28:07;;;;;;;8.35;2.10;;;;;;;35.95;29.93;101027.50;5073789;28;20029;-59
2022/08/01 02:30:37;;;;;;;12.48;2.00;;;;;;;35.87;29.58;101023.19;5071004;28;20045;-61
2022/08/01 02:33:07;;;;;;;10.32;2.15;;;;;;;35.75;30.58;101027.44;5073358;28;20401;-60
2022/08/01 02:35:38;;;;;;;8.80;2.00;;;;;;;35.61;30.20;101033.31;5073587;28;20028;-60
2022/08/01 02:38:09;;;;;;;8.52;2.30;;;;;;;35.45;29.54;101044.50;5074151;28;20033;-60
2022/08/01 02:40:40;;;;;;;9.25;1.90;;;;;;;35.51;29.19;101040.75;5079334;28;20029;-64
2022/08/01 02:43:09;;;;;;;12.38;1.90;;;;;;;35.36;28.11;101050.66;5074150;28;20090;-61
2022/08/01 02:45:41;;;;;;;12.90;2.20;;;;;;;35.32;27.89;101055.56;5074164;28;20372;-63
2022/08/01 02:48:15;;;;;;;10.02;2.05;;;;;;;35.29;28.05;101067.72;5075994;28;20501;-61
2022/08/01 02:50:45;;;;;;;10.10;2.22;;;;;;;35.13;29.36;101069.16;5075307;28;20052;-61
2022/08/01 02:53:14;;;;;;;17.35;2.55;;;;;;;35.05;30.57;101064.84;5073014;28;20418;-61
2022/08/01 02:55:47;;;;;;;27.45;3.55;;;;;;;34.97;32.09;101066.13;5074238;28;20107;-59
2022/08/01 02:58:18;;;;;;;23.15;2.95;;;;;;;34.85;33.34;101066.72;5072951;28;20047;-59
2022/08/01 03:00:47;;;;;;;22.10;3.35;;;;;;;34.68;34.08;101073.38;5074368;28;20024;-57
2022/08/01 03:03:15;;;;;;;21.45;3.47;;;;;;;34.68;34.13;101085.47;5056902;28;20033;-59
2022/08/01 03:05:44;;;;;;;25.40;3.25;;;;;;;34.55;34.82;101073.09;5074573;28;20045;-58
2022/08/01 03:08:15;;;;;;;23.02;3.42;;;;;;;34.41;35.36;101070.44;5073912;28;20020;-58
2022/08/01 03:10:44;;;;;;;15.65;2.90;;;;;;;34.38;35.07;101074.91;5074651;28;20050;-59
2022/08/01 03:13:13;;;;;;;27.02;4.75;;;;;;;34.39;34.98;101079.31;5074141;28;20032;-59
2022/08/01 03:15:43;;;;;;;20.38;3.05;;;;;;;34.35;34.91;101072.94;5072095;28;20498;-58
2022/08/01 03:18:13;;;;;;;29.48;3.60;;;;;;;34.24;35.03;101091.94;5072070;28;20492;-60
2022/08/01 03:20:42;;;;;;;14.68;2.65;;;;;;;34.23;34.94;101087.53;5072783;28;20478;-59
2022/08/01 03:23:11;;;;;;;17.73;2.70;;;;;;;34.12;35.09;101089.66;5071896;28;20028;-59
2022/08/01 03:25:44;;;;;;;11.45;2.47;;;;;;;34.03;34.82;101103.44;5072237;28;20139;-59
2022/08/01 03:28:15;;;;;;;10.10;2.55;;;;;;;33.96;34.92;101100.69;5073547;28;20028;-61
2022/08/01 03:30:43;;;;;;;14.57;2.55;;;;;;;34.04;34.96;101105.03;5074442;28;20043;-58
2022/08/01 03:33:11;;;;;;;12.88;2.30;;;;;;;33.90;34.96;101106.75;5073908;28;20017;-61
2022/08/01 03:35:45;;;;;;;16.60;2.40;;;;;;;33.79;35.29;101103.22;5072808;28;20025;-58
2022/08/01 03:38:16;;;;;;;17.63;2.83;;;;;;;33.73;36.05;101104.84;5072893;28;20036;-59
2022/08/01 03:41:18;;;;;;;15.80;5.50;;;;;;;33.71;36.34;101115.75;5072856;28;20046;-59
2022/08/01 03:44:03;;;;;;;16.73;5.65;;;;;;;33.62;36.41;101116.22;5070634;28;20079;-59
2022/08/01 03:46:36;;;;;;;19.05;6.72;;;;;;;33.54;36.25;101114.66;5074414;28;20036;-60
2022/08/01 03:49:15;;;;;;;9.98;3.13;;;;;;;33.61;36.08;101125.09;5073454;28;20038;-60
2022/08/01 03:51:44;;;;;;;18.15;2.40;;;;;;;33.49;36.35;101125.56;5074508;28;20037;-59
2022/08/01 03:54:12;;;;;;;16.45;7.13;;;;;;;33.56;36.59;101139.59;5073324;28;20028;-60
2022/08/01 03:56:42;;;;;;;11.25;2.42;;;;;;;33.40;37.23;101153.41;5073249;28;20033;-59
2022/08/01 03:59:10;;;;;;;12.73;2.22;;;;;;;33.43;37.34;101158.22;5074771;28;20035;-60
2022/08/01 04:01:37;;;;;;;15.48;2.60;;;;;;;33.37;37.42;101159.84;5077977;28;20522;-60
2022/08/01 04:04:05;;;;;;;18.25;2.80;;;;;;;33.40;38.34;101162.69;5080389;28;20036;-59
2022/08/01 04:06:32;;;;;;;11.10;2.55;;;;;;;33.25;38.59;101166.75;5076704;28;20036;-60
2022/08/01 04:09:00;;;;;;;11.73;2.63;;;;;;;33.12;38.99;101168.41;5074295;28;20129;-58
2022/08/01 04:11:28;;;;;;;13.10;2.72;;;;;;;33.04;39.59;101164.81;5073851;28;20220;-58
2022/08/01 04:13:55;;;;;;;7.05;2.28;;;;;;;33.07;39.39;101183.72;5075962;28;20041;-59
2022/08/01 04:16:22;;;;;;;11.32;2.50;;;;;;;33.09;39.52;101186.13;5074890;28;20108;-61
2022/08/01 04:18:49;;;;;;;8.65;2.30;;;;;;;33.09;39.68;101191.75;5073373;28;20441;-59
2022/08/01 04:21:21;;;;;;;12.50;2.15;;;;;;;33.13;39.55;101186.91;5079833;28;20033;-59
2022/08/01 04:23:51;;;;;;;13.98;2.53;;;;;;;33.03;39.46;101188.53;5084664;28;20066;-59
2022/08/01 04:26:20;;;;;;;13.10;2.42;;;;;;;33.06;39.47;101190.56;5079384;28;20031;-61
2022/08/01 04:28:49;;;;;;;15.48;2.20;;;;;;;32.99;39.13;101196.19;5069716;28;20112;-61
2022/08/01 04:31:18;;;;;;;7.53;2.08;;;;;;;32.92;39.21;101199.03;5076534;28;20569;-61
2022/08/01 04:33:49;;;;;;;11.63;2.30;;;;;;;32.97;39.28;101205.06;5076992;28;20025;-60
2022/08/01 04:36:19;;;;;;;9.48;2.03;;;;;;;32.86;39.77;101204.31;5080233;28;20107;-61
2022/08/01 04:38:50;;;;;;;11.40;2.38;;;;;;;32.75;39.58;101192.22;5076256;28;20029;-60
2022/08/01 04:41:18;;;;;;;12.30;2.47;;;;;;;32.74;39.85;101194.22;5075680;28;20502;-60
2022/08/01 04:43:46;;;;;;;11.32;3.00;;;;;;;32.67;39.57;101202.66;5075357;28;20127;-59
2022/08/01 04:46:14;;;;;;;11.13;3.03;;;;;;;32.68;39.61;101198.66;5079032;28;20025;-60
2022/08/01 04:48:41;;;;;;;11.40;2.60;;;;;;;32.64;40.02;101202.69;5086292;28;20019;-60
2022/08/01 04:51:21;;;;;;;9.50;2.40;;;;;;;32.58;40.21;101205.09;5086553;28;20043;-61
2022/08/01 04:53:50;;;;;;;6.07;2.13;;;;;;;32.55;40.93;101203.09;5086808;28;20039;-60
2022/08/01 04:56:19;;;;;;;11.38;2.50;;;;;;;32.56;41.28;101207.53;5089167;28;20043;-61
2022/08/01 04:58:45;;;;;;;8.48;2.30;;;;;;;32.39;42.17;101199.91;5073145;28;20048;-58
2022/08/01 05:01:13;;;;;;;10.27;2.58;;;;;;;32.32;42.58;101191.47;5083956;28;20702;-59
2022/08/01 05:03:40;;;;;;;10.00;2.75;;;;;;;32.38;42.68;101201.09;5075106;28;20087;-58
2022/08/01 05:06:07;;;;;;;11.23;2.92;;;;;;;32.27;43.08;101212.34;5076300;28;20024;-59
2022/08/01 05:08:35;;;;;;;13.98;3.03;;;;;;;32.21;43.94;101204.69;5079983;28;20160;-60
2022/08/01 05:11:02;;;;;;;14.98;2.75;;;;;;;32.11;44.12;101204.28;5085710;28;20075;-60
2022/08/01 05:13:29;;;;;;;9.63;2.60;;;;;;;32.08;44.73;101204.28;5083687;28;20107;-59
2022/08/01 05:15:56;;;;;;;9.05;2.67;;;;;;;32.09;44.64;101217.94;5081322;28;20028;-61
2022/08/01 05:18:22;;;;;;;10.90;2.88;;;;;;;32.05;45.34;101211.50;5084801;28;20107;-59
2022/08/01 05:20:49;;;;;;;17.65;3.78;;;;;;;32.07;45.50;101208.28;5086036;28;20024;-59
2022/08/01 05:23:16;;;;;;;14.65;3.10;;;;;;;31.96;45.95;101216.72;5086451;28;20036;-59
2022/08/01 05:25:42;;;;;;;9.52;2.75;;;;;;;31.94;46.30;101210.69;5077992;28;20039;-59
2022/08/01 05:28:09;;;;;;;15.57;3.60;;;;;;;31.88;47.17;101211.47;5086797;28;20501;-59
2022/08/01 05:30:36;;;;;;;8.98;3.10;;;;;;;31.90;46.90;101211.88;5082467;28;20020;-60
2022/08/01 05:33:02;;;;;;;12.15;3.03;;;;;;;31.82;47.35;101211.06;5078052;28;20486;-60
2022/08/01 05:35:29;;;;;;;13.20;2.88;;;;;;;31.82;47.91;101213.88;5078624;28;20025;-60
2022/08/01 05:37:56;;;;;;;14.90;3.47;;;;;;;31.76;48.67;101215.47;5082110;28;20040;-59
2022/08/01 05:40:22;;;;;;;8.77;2.83;;;;;;;31.69;49.29;101215.41;5086074;28;20020;-60
2022/08/01 05:42:49;;;;;;;10.55;3.60;;;;;;;31.54;49.34;101201.31;5084749;28;20032;-59
2022/08/01 05:45:16;;;;;;;9.90;3.10;;;;;;;31.63;49.91;101208.59;5079315;28;20024;-59
2022/08/01 05:47:42;;;;;;;10.35;3.30;;;;;;;31.63;49.62;101219.81;5075205;28;20551;-59
2022/08/01 05:50:15;;;;;;;12.50;3.50;;;;;;;31.46;50.49;101212.94;5078208;28;20103;-60
2022/08/01 05:52:42;;;;;;;13.77;3.35;;;;;;;31.47;52.01;101225.78;5077372;28;20036;-60
2022/08/01 05:55:09;;;;;;;11.45;3.90;;;;;;;31.41;52.78;101225.34;5078834;28;20032;-59
2022/08/01 05:57:35;;;;;;;14.95;3.83;;;;;;;31.26;53.46;101226.50;5087800;28;20036;-60
2022/08/01 06:00:03;;;;;;;14.45;3.53;;;;;;;31.33;53.52;101232.16;5078516;28;20020;-60
2022/08/01 06:02:42;;;;;;;15.85;3.92;;;;;;;31.23;53.15;101238.50;5067068;28;20545;-59
2022/08/01 06:05:09;;;;;;;9.70;3.53;;;;;;;31.29;53.51;101236.94;5087370;28;20129;-59
2022/08/01 06:07:38;;;;;;;11.88;3.90;;;;;;;31.23;54.63;101241.31;5083891;28;20017;-60
2022/08/01 06:10:05;;;;;;;13.65;4.15;;;;;;;31.20;54.53;101244.91;5074771;28;20044;-60
2022/08/01 06:12:36;;;;;;;11.10;4.03;;;;;;;31.20;55.20;101247.72;5082019;28;20078;-60
2022/08/01 06:15:04;;;;;;;14.07;3.83;;;;;;;31.09;55.56;101244.03;5085428;28;20043;-59
2022/08/01 06:17:31;;;;;;;14.05;4.18;;;;;;;31.04;56.06;101242.38;5085089;28;20024;-59
2022/08/01 06:19:58;;;;;;;15.00;4.20;;;;;;;31.00;56.51;101235.16;5089925;28;20512;-59
2022/08/01 06:22:24;;;;;;;12.43;4.18;;;;;;;30.89;57.20;101224.69;5080542;28;20063;-59
2022/08/01 06:24:51;;;;;;;12.00;3.83;;;;;;;30.93;58.06;101247.16;5078495;28;20051;-60
2022/08/01 06:27:18;;;;;;;11.38;4.22;;;;;;;30.87;58.56;101241.06;5082423;28;20086;-60
2022/08/01 06:29:45;;;;;;;9.70;3.38;;;;;;;30.74;58.56;101234.19;5083174;28;20078;-59
2022/08/01 06:32:12;;;;;;;19.13;4.30;;;;;;;30.86;58.84;101242.28;5068136;28;20048;-59
2022/08/01 06:34:38;;;;;;;9.75;3.75;;;;;;;30.74;58.97;101237.00;5079992;28;20467;-59
2022/08/01 06:37:05;;;;;;;12.00;3.92;;;;;;;30.77;59.80;101243.81;5082409;28;20017;-59
2022/08/01 06:39:32;;;;;;;11.02;4.15;;;;;;;30.79;60.03;101256.28;5084872;28;20029;-59
2022/08/01 06:41:58;;;;;;;13.88;4.13;;;;;;;30.74;60.09;101256.63;5084321;28;20025;-59
2022/08/01 06:44:25;;;;;;;11.48;3.70;;;;;;;30.63;60.26;101256.53;5085216;28;20123;-59
2022/08/01 06:46:52;;;;;;;13.60;3.72;;;;;;;30.60;60.62;101262.09;5085286;28;20081;-59
2022/08/01 06:49:18;;;;;;;14.07;4.28;;;;;;;30.57;60.76;101257.28;5082117;28;20024;-59
2022/08/01 06:51:45;;;;;;;16.98;3.90;;;;;;;30.47;60.00;101252.38;5081921;28;20433;-60
2022/08/01 06:54:12;;;;;;;17.33;3.95;;;;;;;30.41;61.04;101242.72;5080002;28;20039;-59
2022/08/01 06:56:38;;;;;;;15.75;4.43;;;;;;;30.41;60.51;101248.31;5085380;28;20421;-59
2022/08/01 06:59:05;;;;;;;12.60;4.00;;;;;;;30.46;60.70;101253.56;5084525;28;20040;-59
2022/08/01 07:01:32;;;;;;;13.27;4.20;;;;;;;30.42;60.26;101249.94;5084608;28;20020;-59
2022/08/01 07:03:59;;;;;;;11.13;3.85;;;;;;;30.41;60.12;101254.72;5081646;28;20040;-58
2022/08/01 07:06:26;;;;;;;15.27;3.83;;;;;;;30.42;60.44;101261.94;5085776;28;20028;-59
2022/08/01 07:08:53;;;;;;;13.95;4.72;;;;;;;30.41;60.04;101260.34;5081916;28;20038;-59
2022/08/01 07:11:20;;;;;;;18.05;7.70;;;;;;;30.35;60.24;101257.09;5088423;28;20048;-58
2022/08/01 07:13:47;;;;;;;21.85;7.82;;;;;;;30.26;59.40;101258.59;5077337;28;20036;-59
2022/08/01 07:16:15;;;;;;;62.97;7.82;;;;;;;30.27;60.29;101258.22;5088279;28;20016;-59
2022/08/01 07:18:42;;;;;;;13.30;7.13;;;;;;;30.18;60.67;101263.34;5086040;28;20497;-59
2022/08/01 07:21:09;;;;;;;18.52;4.90;;;;;;;30.14;61.13;101265.28;5080668;28;20059;-58
2022/08/01 07:23:36;;;;;;;9.68;4.05;;;;;;;30.11;61.18;101271.66;5082649;28;20421;-59
2022/08/01 07:26:04;;;;;;;16.95;5.43;;;;;;;30.06;60.90;101269.22;5091644;28;20050;-59
2022/08/01 07:28:31;;;;;;;11.52;4.80;;;;;;;30.13;61.69;101277.69;5087461;28;20031;-59
2022/08/01 07:30:57;;;;;;;14.27;5.40;;;;;;;30.07;61.12;101276.44;5088189;28;20103;-59
2022/08/01 07:33:24;;;;;;;16.73;8.77;;;;;;;30.07;61.91;101268.84;5085385;28;20048;-59
2022/08/01 07:35:51;;;;;;;20.80;7.50;;;;;;;30.02;62.21;101276.75;5087397;28;20025;-59
2022/08/01 07:38:18;;;;;;;15.63;5.60;;;;;;;30.08;62.35;101275.25;5088206;28;20063;-59
2022/08/01 07:40:45;;;;;;;18.25;7.38;;;;;;;30.01;62.98;101275.97;5076529;28;20017;-58
2022/08/01 07:43:11;;;;;;;16.50;9.98;;;;;;;29.94;63.09;101275.84;5084975;28;20032;-59
2022/08/01 07:45:39;;;;;;;16.58;8.68;;;;;;;29.91;63.58;101273.03;5082176;28;20459;-58
2022/08/01 07:48:06;;;;;;;18.95;9.20;;;;;;;29.90;64.14;101277.00;5086668;28;20032;-58
2022/08/01 07:50:33;;;;;;;15.45;5.88;;;;;;;29.90;64.47;101277.00;5086818;28;20050;-58
2022/08/01 07:53:00;;;;;;;12.15;4.32;;;;;;;29.85;64.55;101272.56;5087286;28;20043;-58
2022/08/01 07:55:27;;;;;;;17.77;5.72;;;;;;;29.70;65.30;101268.78;5083694;28;20466;-58
2022/08/01 07:57:54;;;;;;;14.80;8.00;;;;;;;29.70;65.39;101265.97;5085033;28;20024;-59
2022/08/01 08:00:20;;;;;;;18.23;7.72;;;;;;;29.68;66.03;101267.56;5093832;28;20020;-57
2022/08/01 08:02:47;;;;;;;11.93;5.07;;;;;;;29.66;65.80;101262.34;5085507;28;20066;-58
2022/08/01 08:05:13;;;;;;;12.48;3.83;;;;;;;29.63;66.28;101265.91;5086703;28;20374;-58
2022/08/01 08:07:40;;;;;;;14.50;6.85;;;;;;;29.65;66.20;101266.34;5077125;28;20040;-58
2022/08/01 08:10:07;;;;;;;16.95;5.57;;;;;;;29.62;65.61;101264.28;5090926;28;20043;-58
2022/08/01 08:12:34;;;;;;;15.75;6.55;;;;;;;29.61;66.82;101267.47;5080191;28;20070;-58
2022/08/01 08:15:01;;;;;;;15.30;5.95;;;;;;;29.54;67.13;101256.97;5083016;28;20037;-58
2022/08/01 08:17:27;;;;;;;12.32;5.50;;;;;;;29.58;67.57;101257.81;5087881;28;20107;-58
2022/08/01 08:19:54;;;;;;;15.52;4.63;;;;;;;29.55;67.06;101269.78;5077245;28;20028;-58
2022/08/01 08:22:21;;;;;;;15.48;6.07;;;;;;;29.50;67.69;101266.53;5089065;28;20040;-58
2022/08/01 08:24:47;;;;;;;14.02;4.90;;;;;;;29.47;67.66;101270.91;5082538;28;20024;-58
2022/08/01 08:27:14;;;;;;;14.68;5.05;;;;;;;29.43;67.80;101261.59;5081707;28;20040;-58
2022/08/01 08:29:41;;;;;;;13.30;4.15;;;;;;;29.34;68.42;101270.31;5090263;28;20028;-58
2022/08/01 08:32:09;;;;;;;15.30;4.20;;;;;;;29.38;68.86;101265.53;5077310;28;20807;-58
2022/08/01 08:34:36;;;;;;;12.80;3.83;;;;;;;29.33;68.58;101268.69;5086868;28;20044;-58
2022/08/01 08:37:03;;;;;;;10.57;4.10;;;;;;;29.28;68.88;101268.22;5079799;28;20063;-57
2022/08/01 08:39:30;;;;;;;17.42;3.60;;;;;;;29.28;68.48;101271.03;5088541;28;20115;-58
2022/08/01 08:42:06;;;;;;;11.40;3.53;;;;;;;29.16;68.90;101263.66;5077086;28;20035;-58
2022/08/01 08:44:33;;;;;;;11.48;4.20;;;;;;;29.19;69.46;101269.28;5086973;28;20035;-58
2022/08/01 08:47:05;;;;;;;12.90;4.18;;;;;;;29.09;69.43;101269.16;5083991;28;20023;-58
2022/08/01 08:49:32;;;;;;;17.98;4.50;;;;;;;29.15;69.20;101274.03;5078993;28;20368;-58
2022/08/01 08:52:00;;;;;;;15.00;4.20;;;;;;;29.16;69.69;101272.84;5090197;28;20016;-58
2022/08/01 08:54:29;;;;;;;10.00;3.90;;;;;;;29.09;69.75;101274.75;5079360;28;20485;-58
2022/08/01 08:56:57;;;;;;;11.73;4.07;;;;;;;29.04;70.05;101267.47;5083656;28;20067;-58
2022/08/01 08:59:24;;;;;;;13.68;3.80;;;;;;;29.06;69.51;101269.88;5087302;28;20543;-58
2022/08/01 09:01:51;;;;;;;9.65;3.70;;;;;;;29.03;69.38;101259.44;5075619;28;20377;-58
2022/08/01 09:04:21;;;;;;;18.02;4.70;;;;;;;29.08;69.77;101264.72;5089051;28;20600;-58
2022/08/01 09:06:47;;;;;;;14.23;4.40;;;;;;;28.98;69.55;101256.97;5079310;28;20470;-57
2022/08/01 09:09:14;;;;;;;16.52;4.70;;;;;;;28.97;70.37;101260.97;5085483;28;20371;-57
2022/08/01 09:11:41;;;;;;;11.25;4.30;;;;;;;28.93;70.05;101258.13;5076952;28;20048;-58
2022/08/01 09:14:22;;;;;;;17.15;4.50;;;;;;;28.88;70.26;101253.63;5089743;28;20035;-57
2022/08/01 09:17:01;;;;;;;12.98;4.88;;;;;;;28.89;71.12;101251.63;5080656;28;20122;-58
2022/08/01 09:19:43;;;;;;;14.25;5.05;;;;;;;28.85;70.75;101259.16;5078970;28;20033;-58
2022/08/01 09:22:13;;;;;;;14.98;4.60;;;;;;;28.77;71.31;101257.44;5088217;28;20387;-58
2022/08/01 09:24:41;;;;;;;14.25;4.30;;;;;;;28.77;71.87;101254.63;5079918;28;20024;-58
2022/08/01 09:27:19;;;;;;;13.05;4.65;;;;;;;28.82;71.73;101248.72;5080456;28;20035;-58
2022/08/01 09:29:46;;;;;;;14.85;4.30;;;;;;;28.78;71.91;101247.84;5089434;28;20031;-58
2022/08/01 09:32:13;;;;;;;14.07;4.75;;;;;;;28.71;72.16;101248.53;5076557;28;20020;-58
2022/08/01 09:34:40;;;;;;;17.60;4.28;;;;;;;28.68;73.21;101243.69;5085041;28;20058;-58
2022/08/01 09:37:07;;;;;;;13.40;4.15;;;;;;;28.65;72.74;101250.06;5078588;28;20364;-58
2022/08/01 09:39:37;;;;;;;13.90;4.47;;;;;;;28.66;72.99;101250.84;5087815;28;20031;-58
2022/08/01 09:42:20;;;;;;;15.40;3.97;;;;;;;28.70;72.63;101243.31;5076054;28;20036;-58
2022/08/01 09:44:48;;;;;;;14.80;4.90;;;;;;;28.69;73.45;101241.72;5083321;28;20024;-58
2022/08/01 09:47:16;;;;;;;13.90;4.20;;;;;;;28.66;73.35;101251.66;5085090;28;20470;-58
2022/08/01 09:49:45;;;;;;;13.38;4.40;;;;;;;28.70;73.90;101262.91;5076540;28;20094;-58
2022/08/01 09:52:16;;;;;;;25.38;4.80;;;;;;;28.69;73.55;101258.50;5059745;28;20478;-58
2022/08/01 09:54:53;;;;;;;13.50;4.85;;;;;;;28.61;73.67;101245.59;5084748;28;20122;-58
2022/08/01 09:57:21;;;;;;;11.93;4.53;;;;;;;28.57;74.07;101246.34;5085564;28;20398;-58
2022/08/01 09:59:52;;;;;;;13.32;4.65;;;;;;;28.58;73.68;101253.53;5075904;28;20020;-58
2022/08/01 10:02:37;;;;;;;10.50;4.60;;;;;;;28.59;74.19;101251.56;5087808;28;20060;-58
2022/08/01 10:05:06;;;;;;;16.40;5.28;;;;;;;28.55;74.38;101262.69;5083152;28;20024;-58
2022/08/01 10:07:34;;;;;;;15.60;4.88;;;;;;;28.50;74.47;101265.78;5077305;28;20056;-58
2022/08/01 10:10:15;;;;;;;11.68;4.47;;;;;;;28.45;74.85;101257.72;5088699;28;20490;-58
2022/08/01 10:12:42;;;;;;;11.60;4.65;;;;;;;28.47;75.05;101254.53;5080090;28;20040;-58
2022/08/01 10:15:10;;;;;;;11.88;4.57;;;;;;;28.47;75.04;101266.53;5080104;28;20118;-58
2022/08/01 10:17:39;;;;;;;14.00;4.60;;;;;;;28.48;75.38;101268.16;5087887;28;20390;-58
2022/08/01 10:20:07;;;;;;;15.13;5.18;;;;;;;28.47;75.66;101271.31;5075674;28;20107;-57
2022/08/01 10:22:34;;;;;;;14.60;4.68;;;;;;;28.44;75.35;101266.47;5085179;28;20021;-58
2022/08/01 10:25:04;;;;;;;14.40;4.90;;;;;;;28.49;75.44;101269.75;5071808;28;20125;-58
2022/08/01 10:27:35;;;;;;;15.35;4.55;;;;;;;28.40;75.45;101274.00;5086836;28;20028;-58
2022/08/01 10:30:05;;;;;;;12.85;4.78;;;;;;;28.44;75.15;101275.66;5090852;28;20036;-60
2022/08/01 10:32:33;;;;;;;12.40;4.30;;;;;;;28.51;76.06;101273.00;5079845;28;20035;-57
2022/08/01 10:35:01;;;;;;;17.00;4.78;;;;;;;28.44;76.11;101267.28;5082117;28;20135;-57
2022/08/01 10:37:28;;;;;;;15.60;4.72;;;;;;;28.39;76.16;101264.81;5077476;28;20025;-59
2022/08/01 10:39:55;;;;;;;11.88;4.30;;;;;;;28.38;76.70;101256.78;5088662;28;20036;-59
2022/08/01 10:42:22;;;;;;;16.75;4.45;;;;;;;28.38;76.38;101256.78;5075797;28;20024;-57
2022/08/01 10:44:49;;;;;;;15.20;4.53;;;;;;;28.38;76.87;101260.41;5083174;28;20033;-57
2022/08/01 10:47:21;;;;;;;14.48;4.63;;;;;;;28.30;76.43;101244.66;5084483;28;20382;-59
2022/08/01 10:49:53;;;;;;;13.07;4.28;;;;;;;28.44;77.03;101264.50;5075421;28;20035;-59
2022/08/01 10:52:20;;;;;;;14.60;4.25;;;;;;;28.38;76.54;101256.78;5087280;28;20119;-59
2022/08/01 10:54:47;;;;;;;15.98;4.55;;;;;;;28.30;77.39;101261.44;5080541;28;20463;-59
2022/08/01 10:57:14;;;;;;;13.70;4.40;;;;;;;28.30;77.07;101264.22;5080635;28;20487;-59
2022/08/01 10:59:55;;;;;;;13.95;4.07;;;;;;;28.33;77.95;101283.06;5091820;28;20036;-59
2022/08/01 11:02:31;;;;;;;14.45;4.45;;;;;;;28.34;78.10;101267.91;5065955;28;20074;-58
2022/08/01 11:05:11;;;;;;;14.18;5.05;;;;;;;28.27;77.38;101273.38;5085570;28;20033;-59
2022/08/01 11:07:52;;;;;;;24.38;5.28;;;;;;;28.27;77.93;101279.78;5081724;28;20033;-59
2022/08/01 11:10:24;;;;;;;15.52;5.10;;;;;;;28.29;77.61;101271.81;5064540;28;20040;-59
2022/08/01 11:12:51;;;;;;;14.18;5.10;;;;;;;28.24;78.16;101268.50;5086326;28;20029;-59
2022/08/01 11:15:28;;;;;;;17.70;5.38;;;;;;;28.20;77.74;101262.03;5088415;28;20039;-57
2022/08/01 11:17:57;;;;;;;14.93;4.70;;;;;;;28.20;77.96;101256.44;5078883;28;20081;-57
2022/08/01 11:20:31;;;;;;;16.27;4.80;;;;;;;28.16;78.94;101266.72;5090329;28;20547;-59
2022/08/01 11:23:00;;;;;;;16.30;4.50;;;;;;;28.17;78.91;101269.16;5083878;28;20620;-59
2022/08/01 11:25:48;;;;;;;15.20;4.30;;;;;;;28.24;78.54;101279.69;5075151;28;20029;-60
2022/08/01 11:28:17;;;;;;;15.80;4.65;;;;;;;28.25;78.14;101284.09;5059752;28;20036;-59
2022/08/01 11:30:49;;;;;;;15.88;4.13;;;;;;;28.18;78.74;101281.94;5087253;28;20051;-60